sensor_id;sensor_type;location;lat;lon;timestamp;temperature;humidity
19232;DHT22;9750;48.730;10.294;2022-12-29T00:02:02;6.80;99.90
19232;DHT22;9750;48.730;10.294;2022-12-29T00:04:29;6.90;99.90
19232;DHT22;9750;48.730;10.294;2022-12-29T00:06:57;6.90;99.90
19232;DHT22;9750;48.730;10.294;2022-12-29T00:09:25;6.90;99.90
19232;DHT22;9750;48.730;10.294;2022-12-29T00:11:54;6.90;99.90
19232;DHT22;9750;48.730;10.294;2022-12-29T00:14:22;6.90;99.90
19232;DHT22;9750;48.730;10.294;2022-12-29T00:17:20;6.90;99.90
19232;DHT22;9750;48.730;10.294;2022-12-29T00:19:48;6.90;99.90
19232;DHT22;9750;48.730;10.294;2022-12-29T00:22:32;6.90;99.90
19232;DHT22;9750;48.730;10.294;2022-12-29T00:25:17;6.90;99.90
19232;DHT22;9750;48.730;10.294;2022-12-29T00:28:04;6.90;99.90
19232;DHT22;9750;48.730;10.294;2022-12-29T00:30:48;6.90;99.90
19232;DHT22;9750;48.730;10.294;2022-12-29T00:33:33;6.90;99.90
19232;DHT22;9750;48.730;10.294;2022-12-29T00:36:20;6.90;99.90
19232;DHT22;9750;48.730;10.294;2022-12-29T00:38:51;7.00;99.90
19232;DHT22;9750;48.730;10.294;2022-12-29T00:41:45;7.00;99.90
19232;DHT22;9750;48.730;10.294;2022-12-29T00:44:31;7.00;99.90
19232;DHT22;9750;48.730;10.294;2022-12-29T00:46:58;7.00;99.90
19232;DHT22;9750;48.730;10.294;2022-12-29T00:49:30;7.10;99.90
19232;DHT22;9750;48.730;10.294;2022-12-29T00:51:58;7.10;99.90
19232;DHT22;9750;48.730;10.294;2022-12-29T00:54:25;7.10;99.90
19232;DHT22;9750;48.730;10.294;2022-12-29T00:56:53;7.10;99.90
19232;DHT22;9750;48.730;10.294;2022-12-29T00:59:20;7.10;99.90
19232;DHT22;9750;48.730;10.294;2022-12-29T01:01:52;7.10;99.90
19232;DHT22;9750;48.730;10.294;2022-12-29T01:04:20;7.20;99.90
19232;DHT22;9750;48.730;10.294;2022-12-29T01:06:47;7.20;99.90
19232;DHT22;9750;48.730;10.294;2022-12-29T01:09:15;7.20;99.90
19232;DHT22;9750;48.730;10.294;2022-12-29T01:12:00;7.20;99.90
19232;DHT22;9750;48.730;10.294;2022-12-29T01:14:27;7.20;99.90
19232;DHT22;9750;48.730;10.294;2022-12-29T01:16:56;7.20;99.90
19232;DHT22;9750;48.730;10.294;2022-12-29T01:19:24;7.30;99.90
19232;DHT22;9750;48.730;10.294;2022-12-29T01:21:51;7.30;99.90
19232;DHT22;9750;48.730;10.294;2022-12-29T01:24:19;7.30;99.90
19232;DHT22;9750;48.730;10.294;2022-12-29T01:26:47;7.30;99.90
19232;DHT22;9750;48.730;10.294;2022-12-29T01:29:14;7.30;99.90
19232;DHT22;9750;48.730;10.294;2022-12-29T01:31:42;7.30;99.90
19232;DHT22;9750;48.730;10.294;2022-12-29T01:34:10;7.30;99.90
19232;DHT22;9750;48.730;10.294;2022-12-29T01:36:38;7.30;99.90
19232;DHT22;9750;48.730;10.294;2022-12-29T01:39:06;7.30;99.90
19232;DHT22;9750;48.730;10.294;2022-12-29T01:41:33;7.40;99.90
19232;DHT22;9750;48.730;10.294;2022-12-29T01:44:00;7.40;99.90
19232;DHT22;9750;48.730;10.294;2022-12-29T01:46:30;7.40;99.90
19232;DHT22;9750;48.730;10.294;2022-12-29T01:49:04;7.40;99.90
19232;DHT22;9750;48.730;10.294;2022-12-29T01:51:36;7.40;99.90
19232;DHT22;9750;48.730;10.294;2022-12-29T01:54:08;7.40;99.90
19232;DHT22;9750;48.730;10.294;2022-12-29T01:56:37;7.50;99.90
19232;DHT22;9750;48.730;10.294;2022-12-29T01:59:08;7.50;99.90
19232;DHT22;9750;48.730;10.294;2022-12-29T02:01:38;7.50;99.90
19232;DHT22;9750;48.730;10.294;2022-12-29T02:04:05;7.50;99.90
19232;DHT22;9750;48.730;10.294;2022-12-29T02:06:37;7.50;99.90
19232;DHT22;9750;48.730;10.294;2022-12-29T02:09:05;7.50;99.90
19232;DHT22;9750;48.730;10.294;2022-12-29T02:11:32;7.60;99.90
19232;DHT22;9750;48.730;10.294;2022-12-29T02:14:04;7.60;99.90
19232;DHT22;9750;48.730;10.294;2022-12-29T02:16:42;7.60;99.90
19232;DHT22;9750;48.730;10.294;2022-12-29T02:19:52;7.60;99.90
19232;DHT22;9750;48.730;10.294;2022-12-29T02:22:29;7.60;99.90
19232;DHT22;9750;48.730;10.294;2022-12-29T02:28:12;7.60;99.90
19232;DHT22;9750;48.730;10.294;2022-12-29T02:30:55;7.60;99.90
19232;DHT22;9750;48.730;10.294;2022-12-29T02:33:39;7.60;99.90
19232;DHT22;9750;48.730;10.294;2022-12-29T02:36:15;7.60;99.90
19232;DHT22;9750;48.730;10.294;2022-12-29T02:38:56;7.60;99.90
19232;DHT22;9750;48.730;10.294;2022-12-29T02:41:31;7.60;99.90
19232;DHT22;9750;48.730;10.294;2022-12-29T02:44:03;7.60;99.90
19232;DHT22;9750;48.730;10.294;2022-12-29T02:46:37;7.70;99.90
19232;DHT22;9750;48.730;10.294;2022-12-29T02:49:09;7.70;99.90
19232;DHT22;9750;48.730;10.294;2022-12-29T02:51:46;7.70;99.90
19232;DHT22;9750;48.730;10.294;2022-12-29T02:54:18;7.70;99.90
19232;DHT22;9750;48.730;10.294;2022-12-29T02:57:07;7.70;99.90
19232;DHT22;9750;48.730;10.294;2022-12-29T02:59:35;7.70;99.90
19232;DHT22;9750;48.730;10.294;2022-12-29T03:08:11;7.80;99.90
19232;DHT22;9750;48.730;10.294;2022-12-29T03:10:47;7.70;99.90
19232;DHT22;9750;48.730;10.294;2022-12-29T03:13:24;7.80;99.90
19232;DHT22;9750;48.730;10.294;2022-12-29T03:16:14;7.70;99.90
19232;DHT22;9750;48.730;10.294;2022-12-29T03:18:50;7.70;99.90
19232;DHT22;9750;48.730;10.294;2022-12-29T03:21:29;7.70;99.90
19232;DHT22;9750;48.730;10.294;2022-12-29T03:24:12;7.70;99.90
19232;DHT22;9750;48.730;10.294;2022-12-29T03:26:41;7.60;99.90
19232;DHT22;9750;48.730;10.294;2022-12-29T03:29:12;7.60;99.90
19232;DHT22;9750;48.730;10.294;2022-12-29T03:31:40;7.60;99.90
19232;DHT22;9750;48.730;10.294;2022-12-29T03:34:10;7.60;99.90
19232;DHT22;9750;48.730;10.294;2022-12-29T03:36:44;7.60;99.90
19232;DHT22;9750;48.730;10.294;2022-12-29T03:39:14;7.60;99.90
19232;DHT22;9750;48.730;10.294;2022-12-29T03:41:43;7.60;99.90
19232;DHT22;9750;48.730;10.294;2022-12-29T03:44:15;7.60;99.90
19232;DHT22;9750;48.730;10.294;2022-12-29T03:46:42;7.60;99.90
19232;DHT22;9750;48.730;10.294;2022-12-29T03:49:09;7.60;99.90
19232;DHT22;9750;48.730;10.294;2022-12-29T03:51:37;7.60;99.90
19232;DHT22;9750;48.730;10.294;2022-12-29T03:54:25;7.60;99.90
19232;DHT22;9750;48.730;10.294;2022-12-29T03:56:52;7.60;99.90
19232;DHT22;9750;48.730;10.294;2022-12-29T03:59:20;7.60;99.90
19232;DHT22;9750;48.730;10.294;2022-12-29T04:01:47;7.60;99.90
19232;DHT22;9750;48.730;10.294;2022-12-29T04:04:14;7.60;99.90
19232;DHT22;9750;48.730;10.294;2022-12-29T04:06:42;7.60;99.90
19232;DHT22;9750;48.730;10.294;2022-12-29T04:09:09;7.60;99.90
19232;DHT22;9750;48.730;10.294;2022-12-29T04:11:38;7.60;99.90
19232;DHT22;9750;48.730;10.294;2022-12-29T04:14:06;7.60;99.90
19232;DHT22;9750;48.730;10.294;2022-12-29T04:16:33;7.60;99.90
19232;DHT22;9750;48.730;10.294;2022-12-29T04:19:01;7.60;99.90
19232;DHT22;9750;48.730;10.294;2022-12-29T04:21:28;7.60;99.90
19232;DHT22;9750;48.730;10.294;2022-12-29T04:23:56;7.60;99.90
19232;DHT22;9750;48.730;10.294;2022-12-29T04:26:23;7.60;99.90
19232;DHT22;9750;48.730;10.294;2022-12-29T04:28:52;7.60;99.90
19232;DHT22;9750;48.730;10.294;2022-12-29T04:31:19;7.60;99.90
19232;DHT22;9750;48.730;10.294;2022-12-29T04:33:46;7.60;99.90
19232;DHT22;9750;48.730;10.294;2022-12-29T04:36:13;7.60;99.90
19232;DHT22;9750;48.730;10.294;2022-12-29T04:38:41;7.60;99.90
19232;DHT22;9750;48.730;10.294;2022-12-29T04:41:09;7.60;99.90
19232;DHT22;9750;48.730;10.294;2022-12-29T04:43:36;7.50;99.90
19232;DHT22;9750;48.730;10.294;2022-12-29T04:46:05;7.50;99.90
19232;DHT22;9750;48.730;10.294;2022-12-29T04:48:33;7.40;99.90
19232;DHT22;9750;48.730;10.294;2022-12-29T04:51:00;7.50;99.90
19232;DHT22;9750;48.730;10.294;2022-12-29T04:53:27;7.50;99.90
19232;DHT22;9750;48.730;10.294;2022-12-29T04:55:55;7.40;99.90
19232;DHT22;9750;48.730;10.294;2022-12-29T04:58:22;7.40;99.90
19232;DHT22;9750;48.730;10.294;2022-12-29T05:00:50;7.40;99.90
19232;DHT22;9750;48.730;10.294;2022-12-29T05:03:19;7.30;99.90
19232;DHT22;9750;48.730;10.294;2022-12-29T05:05:46;7.30;99.90
19232;DHT22;9750;48.730;10.294;2022-12-29T05:08:13;7.30;99.90
19232;DHT22;9750;48.730;10.294;2022-12-29T05:10:44;7.20;99.90
19232;DHT22;9750;48.730;10.294;2022-12-29T05:13:24;7.20;99.90
19232;DHT22;9750;48.730;10.294;2022-12-29T05:15:52;7.20;99.90
19232;DHT22;9750;48.730;10.294;2022-12-29T05:18:21;7.20;99.90
19232;DHT22;9750;48.730;10.294;2022-12-29T05:20:48;7.20;99.90
19232;DHT22;9750;48.730;10.294;2022-12-29T05:23:16;7.10;99.90
19232;DHT22;9750;48.730;10.294;2022-12-29T05:25:44;7.10;99.90
19232;DHT22;9750;48.730;10.294;2022-12-29T05:28:12;7.10;99.90
19232;DHT22;9750;48.730;10.294;2022-12-29T05:30:39;7.10;99.90
19232;DHT22;9750;48.730;10.294;2022-12-29T05:33:06;7.10;99.90
19232;DHT22;9750;48.730;10.294;2022-12-29T05:35:38;7.10;99.90
19232;DHT22;9750;48.730;10.294;2022-12-29T05:38:05;7.10;99.90
19232;DHT22;9750;48.730;10.294;2022-12-29T05:40:33;7.10;99.90
19232;DHT22;9750;48.730;10.294;2022-12-29T05:43:00;7.10;99.90
19232;DHT22;9750;48.730;10.294;2022-12-29T05:45:27;7.10;99.90
19232;DHT22;9750;48.730;10.294;2022-12-29T05:47:54;7.10;99.90
19232;DHT22;9750;48.730;10.294;2022-12-29T05:50:22;7.10;99.90
19232;DHT22;9750;48.730;10.294;2022-12-29T05:52:50;7.10;99.90
19232;DHT22;9750;48.730;10.294;2022-12-29T05:55:18;7.10;99.90
19232;DHT22;9750;48.730;10.294;2022-12-29T05:57:45;7.10;99.90
19232;DHT22;9750;48.730;10.294;2022-12-29T06:00:13;7.10;99.90
19232;DHT22;9750;48.730;10.294;2022-12-29T06:02:41;7.20;99.90
19232;DHT22;9750;48.730;10.294;2022-12-29T06:05:08;7.20;99.90
19232;DHT22;9750;48.730;10.294;2022-12-29T06:07:36;7.20;99.90
19232;DHT22;9750;48.730;10.294;2022-12-29T06:10:06;7.20;99.90
19232;DHT22;9750;48.730;10.294;2022-12-29T06:12:33;7.20;99.90
19232;DHT22;9750;48.730;10.294;2022-12-29T06:15:00;7.20;99.90
19232;DHT22;9750;48.730;10.294;2022-12-29T06:17:28;7.30;99.90
19232;DHT22;9750;48.730;10.294;2022-12-29T06:19:55;7.30;99.90
19232;DHT22;9750;48.730;10.294;2022-12-29T06:22:22;7.30;99.90
19232;DHT22;9750;48.730;10.294;2022-12-29T06:24:49;7.30;99.90
19232;DHT22;9750;48.730;10.294;2022-12-29T06:27:18;7.20;99.90
19232;DHT22;9750;48.730;10.294;2022-12-29T06:29:45;7.20;99.90
19232;DHT22;9750;48.730;10.294;2022-12-29T06:32:13;7.10;99.90
19232;DHT22;9750;48.730;10.294;2022-12-29T06:34:40;7.10;99.90
19232;DHT22;9750;48.730;10.294;2022-12-29T06:37:07;7.10;99.90
19232;DHT22;9750;48.730;10.294;2022-12-29T06:39:34;7.00;99.90
19232;DHT22;9750;48.730;10.294;2022-12-29T06:42:02;7.00;99.90
19232;DHT22;9750;48.730;10.294;2022-12-29T06:44:32;7.00;99.90
19232;DHT22;9750;48.730;10.294;2022-12-29T06:46:59;7.00;99.90
19232;DHT22;9750;48.730;10.294;2022-12-29T06:49:27;7.00;99.90
19232;DHT22;9750;48.730;10.294;2022-12-29T06:51:54;7.00;99.90
19232;DHT22;9750;48.730;10.294;2022-12-29T06:54:23;7.00;99.90
19232;DHT22;9750;48.730;10.294;2022-12-29T06:56:51;7.00;99.90
19232;DHT22;9750;48.730;10.294;2022-12-29T06:59:18;7.00;99.90
19232;DHT22;9750;48.730;10.294;2022-12-29T07:01:47;6.90;99.90
19232;DHT22;9750;48.730;10.294;2022-12-29T07:04:14;7.00;99.90
19232;DHT22;9750;48.730;10.294;2022-12-29T07:06:41;6.90;99.90
19232;DHT22;9750;48.730;10.294;2022-12-29T07:09:09;7.00;99.90
19232;DHT22;9750;48.730;10.294;2022-12-29T07:11:36;7.00;99.90
19232;DHT22;9750;48.730;10.294;2022-12-29T07:17:14;6.90;99.90
19232;DHT22;9750;48.730;10.294;2022-12-29T07:19:42;6.90;99.90
19232;DHT22;9750;48.730;10.294;2022-12-29T07:22:09;6.90;99.90
19232;DHT22;9750;48.730;10.294;2022-12-29T07:24:37;6.90;99.90
19232;DHT22;9750;48.730;10.294;2022-12-29T07:27:04;6.90;99.90
19232;DHT22;9750;48.730;10.294;2022-12-29T07:29:32;7.00;99.90
19232;DHT22;9750;48.730;10.294;2022-12-29T07:31:59;7.00;99.90
19232;DHT22;9750;48.730;10.294;2022-12-29T07:34:28;7.00;99.90
19232;DHT22;9750;48.730;10.294;2022-12-29T07:36:55;7.00;99.90
19232;DHT22;9750;48.730;10.294;2022-12-29T07:39:22;7.00;99.90
19232;DHT22;9750;48.730;10.294;2022-12-29T07:41:50;7.00;99.90
19232;DHT22;9750;48.730;10.294;2022-12-29T07:44:17;7.00;99.90
19232;DHT22;9750;48.730;10.294;2022-12-29T07:46:44;7.00;99.90
19232;DHT22;9750;48.730;10.294;2022-12-29T07:49:11;7.00;99.90
19232;DHT22;9750;48.730;10.294;2022-12-29T07:51:40;7.00;99.90
19232;DHT22;9750;48.730;10.294;2022-12-29T07:54:09;7.10;99.90
19232;DHT22;9750;48.730;10.294;2022-12-29T07:56:37;7.10;99.90
19232;DHT22;9750;48.730;10.294;2022-12-29T07:59:05;7.10;99.90
19232;DHT22;9750;48.730;10.294;2022-12-29T08:01:32;7.10;99.90
19232;DHT22;9750;48.730;10.294;2022-12-29T08:03:59;7.10;99.90
19232;DHT22;9750;48.730;10.294;2022-12-29T08:06:27;7.10;99.90
19232;DHT22;9750;48.730;10.294;2022-12-29T08:08:57;7.20;99.90
19232;DHT22;9750;48.730;10.294;2022-12-29T08:11:26;7.20;99.90
19232;DHT22;9750;48.730;10.294;2022-12-29T08:13:53;7.20;99.90
19232;DHT22;9750;48.730;10.294;2022-12-29T08:16:20;7.20;99.90
19232;DHT22;9750;48.730;10.294;2022-12-29T08:18:48;7.20;99.90
19232;DHT22;9750;48.730;10.294;2022-12-29T08:21:15;7.30;99.90
19232;DHT22;9750;48.730;10.294;2022-12-29T08:23:42;7.30;99.90
19232;DHT22;9750;48.730;10.294;2022-12-29T08:26:11;7.30;99.90
19232;DHT22;9750;48.730;10.294;2022-12-29T08:28:38;7.40;99.90
19232;DHT22;9750;48.730;10.294;2022-12-29T08:31:06;7.40;99.90
19232;DHT22;9750;48.730;10.294;2022-12-29T08:33:33;7.40;99.90
19232;DHT22;9750;48.730;10.294;2022-12-29T08:36:01;7.50;99.90
19232;DHT22;9750;48.730;10.294;2022-12-29T08:38:29;7.50;99.90
19232;DHT22;9750;48.730;10.294;2022-12-29T08:40:57;7.50;99.90
19232;DHT22;9750;48.730;10.294;2022-12-29T08:43:26;7.60;99.90
19232;DHT22;9750;48.730;10.294;2022-12-29T08:45:54;7.60;99.90
19232;DHT22;9750;48.730;10.294;2022-12-29T08:48:21;7.70;99.90
19232;DHT22;9750;48.730;10.294;2022-12-29T08:50:50;7.70;99.90
19232;DHT22;9750;48.730;10.294;2022-12-29T08:53:17;7.80;99.90
19232;DHT22;9750;48.730;10.294;2022-12-29T08:55:45;7.80;99.90
19232;DHT22;9750;48.730;10.294;2022-12-29T08:58:14;7.90;99.90
19232;DHT22;9750;48.730;10.294;2022-12-29T09:00:43;8.00;99.90
19232;DHT22;9750;48.730;10.294;2022-12-29T09:03:11;8.00;99.90
19232;DHT22;9750;48.730;10.294;2022-12-29T09:05:38;8.10;99.90
19232;DHT22;9750;48.730;10.294;2022-12-29T09:08:05;8.10;99.90
19232;DHT22;9750;48.730;10.294;2022-12-29T09:10:33;8.20;99.90
19232;DHT22;9750;48.730;10.294;2022-12-29T09:13:01;8.30;99.90
19232;DHT22;9750;48.730;10.294;2022-12-29T09:15:28;8.30;99.90
19232;DHT22;9750;48.730;10.294;2022-12-29T09:17:57;8.40;99.90
19232;DHT22;9750;48.730;10.294;2022-12-29T09:20:34;8.50;99.90
19232;DHT22;9750;48.730;10.294;2022-12-29T09:23:03;8.60;99.90
19232;DHT22;9750;48.730;10.294;2022-12-29T09:25:31;8.70;99.90
19232;DHT22;9750;48.730;10.294;2022-12-29T09:27:59;8.80;99.90
19232;DHT22;9750;48.730;10.294;2022-12-29T09:30:28;8.80;99.90
19232;DHT22;9750;48.730;10.294;2022-12-29T09:32:57;8.90;99.90
19232;DHT22;9750;48.730;10.294;2022-12-29T09:35:24;8.90;99.90
19232;DHT22;9750;48.730;10.294;2022-12-29T09:37:51;9.00;99.90
19232;DHT22;9750;48.730;10.294;2022-12-29T09:40:26;9.10;99.90
19232;DHT22;9750;48.730;10.294;2022-12-29T09:43:17;9.20;99.90
19232;DHT22;9750;48.730;10.294;2022-12-29T09:49:09;9.30;99.90
19232;DHT22;9750;48.730;10.294;2022-12-29T09:51:45;9.30;99.90
19232;DHT22;9750;48.730;10.294;2022-12-29T09:54:26;9.40;99.90
19232;DHT22;9750;48.730;10.294;2022-12-29T09:56:56;9.40;99.90
19232;DHT22;9750;48.730;10.294;2022-12-29T09:59:30;9.50;99.90
19232;DHT22;9750;48.730;10.294;2022-12-29T10:04:54;9.50;99.90
19232;DHT22;9750;48.730;10.294;2022-12-29T10:07:29;9.50;99.90
19232;DHT22;9750;48.730;10.294;2022-12-29T10:10:06;9.60;99.90
19232;DHT22;9750;48.730;10.294;2022-12-29T10:16:02;9.60;99.90
19232;DHT22;9750;48.730;10.294;2022-12-29T10:21:37;9.70;99.90
19232;DHT22;9750;48.730;10.294;2022-12-29T10:24:07;9.80;99.90
19232;DHT22;9750;48.730;10.294;2022-12-29T10:26:40;9.90;99.90
19232;DHT22;9750;48.730;10.294;2022-12-29T10:29:16;9.90;99.90
19232;DHT22;9750;48.730;10.294;2022-12-29T10:31:48;10.00;99.90
19232;DHT22;9750;48.730;10.294;2022-12-29T10:34:21;9.90;99.90
19232;DHT22;9750;48.730;10.294;2022-12-29T10:36:57;10.00;99.90
19232;DHT22;9750;48.730;10.294;2022-12-29T10:39:31;9.90;99.90
19232;DHT22;9750;48.730;10.294;2022-12-29T10:42:43;9.90;99.90
19232;DHT22;9750;48.730;10.294;2022-12-29T10:45:28;9.90;99.90
19232;DHT22;9750;48.730;10.294;2022-12-29T10:48:00;10.00;99.90
19232;DHT22;9750;48.730;10.294;2022-12-29T10:50:28;10.00;99.90
19232;DHT22;9750;48.730;10.294;2022-12-29T10:52:59;10.00;99.90
19232;DHT22;9750;48.730;10.294;2022-12-29T10:55:30;10.00;99.90
19232;DHT22;9750;48.730;10.294;2022-12-29T10:58:02;10.00;99.90
19232;DHT22;9750;48.730;10.294;2022-12-29T11:00:32;10.00;99.90
19232;DHT22;9750;48.730;10.294;2022-12-29T11:03:11;10.10;99.90
19232;DHT22;9750;48.730;10.294;2022-12-29T11:05:48;10.10;99.90
19232;DHT22;9750;48.730;10.294;2022-12-29T11:08:19;10.10;99.90
19232;DHT22;9750;48.730;10.294;2022-12-29T11:10:58;10.10;99.90
19232;DHT22;9750;48.730;10.294;2022-12-29T11:13:27;10.10;99.90
19232;DHT22;9750;48.730;10.294;2022-12-29T11:15:55;10.10;99.90
19232;DHT22;9750;48.730;10.294;2022-12-29T11:18:23;10.00;99.90
19232;DHT22;9750;48.730;10.294;2022-12-29T11:20:53;10.00;99.90
19232;DHT22;9750;48.730;10.294;2022-12-29T11:23:40;10.00;99.90
19232;DHT22;9750;48.730;10.294;2022-12-29T11:26:20;10.00;99.90
19232;DHT22;9750;48.730;10.294;2022-12-29T11:29:05;10.00;99.90
19232;DHT22;9750;48.730;10.294;2022-12-29T11:31:40;10.00;99.90
19232;DHT22;9750;48.730;10.294;2022-12-29T11:34:08;10.00;99.90
19232;DHT22;9750;48.730;10.294;2022-12-29T11:36:36;10.00;99.90
19232;DHT22;9750;48.730;10.294;2022-12-29T11:39:06;10.00;99.90
19232;DHT22;9750;48.730;10.294;2022-12-29T11:41:51;10.00;99.90
19232;DHT22;9750;48.730;10.294;2022-12-29T11:44:20;10.10;99.90
19232;DHT22;9750;48.730;10.294;2022-12-29T11:46:50;10.00;99.90
19232;DHT22;9750;48.730;10.294;2022-12-29T11:49:20;10.10;99.90
19232;DHT22;9750;48.730;10.294;2022-12-29T11:51:49;10.10;99.90
19232;DHT22;9750;48.730;10.294;2022-12-29T11:54:22;10.10;99.90
19232;DHT22;9750;48.730;10.294;2022-12-29T11:56:51;10.10;99.90
19232;DHT22;9750;48.730;10.294;2022-12-29T11:59:36;10.20;99.90
19232;DHT22;9750;48.730;10.294;2022-12-29T12:05:14;10.40;99.90
19232;DHT22;9750;48.730;10.294;2022-12-29T12:07:44;10.40;99.90
19232;DHT22;9750;48.730;10.294;2022-12-29T12:10:21;10.40;99.90
19232;DHT22;9750;48.730;10.294;2022-12-29T12:12:58;10.50;99.90
19232;DHT22;9750;48.730;10.294;2022-12-29T12:15:34;10.50;99.90
19232;DHT22;9750;48.730;10.294;2022-12-29T12:18:09;10.40;99.90
19232;DHT22;9750;48.730;10.294;2022-12-29T12:20:46;10.40;99.90
19232;DHT22;9750;48.730;10.294;2022-12-29T12:23:33;10.40;99.90
19232;DHT22;9750;48.730;10.294;2022-12-29T12:26:11;10.40;99.90
19232;DHT22;9750;48.730;10.294;2022-12-29T12:28:46;10.40;99.90
19232;DHT22;9750;48.730;10.294;2022-12-29T12:31:21;10.40;99.90
19232;DHT22;9750;48.730;10.294;2022-12-29T12:33:54;10.40;99.90
19232;DHT22;9750;48.730;10.294;2022-12-29T12:36:46;10.40;99.90
19232;DHT22;9750;48.730;10.294;2022-12-29T12:39:23;10.40;99.90
19232;DHT22;9750;48.730;10.294;2022-12-29T12:42:02;10.40;99.90
19232;DHT22;9750;48.730;10.294;2022-12-29T12:44:39;10.40;99.90
19232;DHT22;9750;48.730;10.294;2022-12-29T12:47:23;10.40;99.90
19232;DHT22;9750;48.730;10.294;2022-12-29T12:53:16;10.50;99.90
19232;DHT22;9750;48.730;10.294;2022-12-29T12:56:12;10.50;99.90
19232;DHT22;9750;48.730;10.294;2022-12-29T12:58:51;10.50;99.90
19232;DHT22;9750;48.730;10.294;2022-12-29T13:01:29;10.60;99.90
19232;DHT22;9750;48.730;10.294;2022-12-29T13:06:56;10.60;99.90
19232;DHT22;9750;48.730;10.294;2022-12-29T13:09:44;10.60;99.90
19232;DHT22;9750;48.730;10.294;2022-12-29T13:12:23;10.60;99.90
19232;DHT22;9750;48.730;10.294;2022-12-29T13:15:01;10.60;99.90
19232;DHT22;9750;48.730;10.294;2022-12-29T13:17:36;10.50;99.90
19232;DHT22;9750;48.730;10.294;2022-12-29T13:20:20;10.50;99.90
19232;DHT22;9750;48.730;10.294;2022-12-29T13:22:54;10.50;99.90
19232;DHT22;9750;48.730;10.294;2022-12-29T13:25:31;10.50;99.90
19232;DHT22;9750;48.730;10.294;2022-12-29T13:28:04;10.40;99.90
19232;DHT22;9750;48.730;10.294;2022-12-29T13:30:38;10.40;99.90
19232;DHT22;9750;48.730;10.294;2022-12-29T13:33:15;10.40;99.90
19232;DHT22;9750;48.730;10.294;2022-12-29T13:35:54;10.40;99.90
19232;DHT22;9750;48.730;10.294;2022-12-29T13:38:25;10.40;99.90
19232;DHT22;9750;48.730;10.294;2022-12-29T13:40:56;10.40;99.90
19232;DHT22;9750;48.730;10.294;2022-12-29T13:43:27;10.40;99.90
19232;DHT22;9750;48.730;10.294;2022-12-29T13:45:59;10.40;99.90
19232;DHT22;9750;48.730;10.294;2022-12-29T13:48:36;10.40;99.90
19232;DHT22;9750;48.730;10.294;2022-12-29T13:51:05;10.40;99.90
19232;DHT22;9750;48.730;10.294;2022-12-29T13:53:41;10.40;99.90
19232;DHT22;9750;48.730;10.294;2022-12-29T13:56:14;10.40;99.90
19232;DHT22;9750;48.730;10.294;2022-12-29T13:58:50;10.40;99.90
19232;DHT22;9750;48.730;10.294;2022-12-29T14:01:27;10.40;99.90
19232;DHT22;9750;48.730;10.294;2022-12-29T14:03:56;10.40;99.90
19232;DHT22;9750;48.730;10.294;2022-12-29T14:06:25;10.40;99.90
19232;DHT22;9750;48.730;10.294;2022-12-29T14:08:55;10.40;99.90
19232;DHT22;9750;48.730;10.294;2022-12-29T14:11:28;10.40;99.90
19232;DHT22;9750;48.730;10.294;2022-12-29T14:13:57;10.40;99.90
19232;DHT22;9750;48.730;10.294;2022-12-29T14:16:33;10.40;99.90
19232;DHT22;9750;48.730;10.294;2022-12-29T14:19:09;10.40;99.90
19232;DHT22;9750;48.730;10.294;2022-12-29T14:21:39;10.40;99.90
19232;DHT22;9750;48.730;10.294;2022-12-29T14:24:26;10.40;99.90
19232;DHT22;9750;48.730;10.294;2022-12-29T14:26:54;10.40;99.90
19232;DHT22;9750;48.730;10.294;2022-12-29T14:29:42;10.40;99.90
19232;DHT22;9750;48.730;10.294;2022-12-29T14:32:38;10.40;99.90
19232;DHT22;9750;48.730;10.294;2022-12-29T14:35:37;10.30;99.90
19232;DHT22;9750;48.730;10.294;2022-12-29T14:38:24;10.30;99.90
19232;DHT22;9750;48.730;10.294;2022-12-29T14:40:52;10.30;99.90
19232;DHT22;9750;48.730;10.294;2022-12-29T14:43:24;10.30;99.90
19232;DHT22;9750;48.730;10.294;2022-12-29T14:45:58;10.30;99.90
19232;DHT22;9750;48.730;10.294;2022-12-29T14:48:35;10.30;99.90
19232;DHT22;9750;48.730;10.294;2022-12-29T14:51:29;10.20;99.90
19232;DHT22;9750;48.730;10.294;2022-12-29T14:53:57;10.20;99.90
19232;DHT22;9750;48.730;10.294;2022-12-29T14:56:27;10.20;99.90
19232;DHT22;9750;48.730;10.294;2022-12-29T14:58:58;10.10;99.90
19232;DHT22;9750;48.730;10.294;2022-12-29T15:01:37;10.10;99.90
19232;DHT22;9750;48.730;10.294;2022-12-29T15:04:15;10.00;99.90
19232;DHT22;9750;48.730;10.294;2022-12-29T15:06:44;10.10;99.90
19232;DHT22;9750;48.730;10.294;2022-12-29T15:09:23;10.00;99.90
19232;DHT22;9750;48.730;10.294;2022-12-29T15:11:54;10.00;99.90
19232;DHT22;9750;48.730;10.294;2022-12-29T15:14:36;10.00;99.90
19232;DHT22;9750;48.730;10.294;2022-12-29T15:17:10;9.90;99.90
19232;DHT22;9750;48.730;10.294;2022-12-29T15:19:39;9.90;99.90
19232;DHT22;9750;48.730;10.294;2022-12-29T15:22:09;9.80;99.90
19232;DHT22;9750;48.730;10.294;2022-12-29T15:24:41;9.80;99.90
19232;DHT22;9750;48.730;10.294;2022-12-29T15:27:13;9.80;99.90
19232;DHT22;9750;48.730;10.294;2022-12-29T15:29:42;9.70;99.90
19232;DHT22;9750;48.730;10.294;2022-12-29T15:32:17;9.70;99.90
19232;DHT22;9750;48.730;10.294;2022-12-29T15:34:47;9.70;99.90
19232;DHT22;9750;48.730;10.294;2022-12-29T15:37:33;9.60;99.90
19232;DHT22;9750;48.730;10.294;2022-12-29T15:40:01;9.50;99.90
19232;DHT22;9750;48.730;10.294;2022-12-29T15:42:50;9.50;99.90
19232;DHT22;9750;48.730;10.294;2022-12-29T15:45:20;9.40;99.90
19232;DHT22;9750;48.730;10.294;2022-12-29T15:47:49;9.40;99.90
19232;DHT22;9750;48.730;10.294;2022-12-29T15:50:23;9.40;99.90
19232;DHT22;9750;48.730;10.294;2022-12-29T15:52:52;9.40;99.90
19232;DHT22;9750;48.730;10.294;2022-12-29T15:55:23;9.50;99.90
19232;DHT22;9750;48.730;10.294;2022-12-29T15:57:56;9.40;99.90
19232;DHT22;9750;48.730;10.294;2022-12-29T16:00:26;9.40;99.90
19232;DHT22;9750;48.730;10.294;2022-12-29T16:02:54;9.40;99.90
19232;DHT22;9750;48.730;10.294;2022-12-29T16:05:24;9.40;99.90
19232;DHT22;9750;48.730;10.294;2022-12-29T16:07:59;9.30;99.90
19232;DHT22;9750;48.730;10.294;2022-12-29T16:10:30;9.30;99.90
19232;DHT22;9750;48.730;10.294;2022-12-29T16:13:04;9.30;99.90
19232;DHT22;9750;48.730;10.294;2022-12-29T16:15:33;9.20;99.90
19232;DHT22;9750;48.730;10.294;2022-12-29T16:18:00;9.20;99.90
19232;DHT22;9750;48.730;10.294;2022-12-29T16:20:38;9.20;99.90
19232;DHT22;9750;48.730;10.294;2022-12-29T16:23:18;9.20;99.90
19232;DHT22;9750;48.730;10.294;2022-12-29T16:25:46;9.20;99.90
19232;DHT22;9750;48.730;10.294;2022-12-29T16:28:19;9.10;99.90
19232;DHT22;9750;48.730;10.294;2022-12-29T16:30:47;9.10;99.90
19232;DHT22;9750;48.730;10.294;2022-12-29T16:33:37;9.00;99.90
19232;DHT22;9750;48.730;10.294;2022-12-29T16:36:28;9.00;99.90
19232;DHT22;9750;48.730;10.294;2022-12-29T16:39:19;8.90;99.90
19232;DHT22;9750;48.730;10.294;2022-12-29T16:41:51;8.90;99.90
19232;DHT22;9750;48.730;10.294;2022-12-29T16:44:20;8.90;99.90
19232;DHT22;9750;48.730;10.294;2022-12-29T16:46:59;8.90;99.90
19232;DHT22;9750;48.730;10.294;2022-12-29T16:49:27;8.90;99.90